createdAt,value
2019-02-06T00:01:21.827Z,1.55
2019-02-06T00:06:19.092Z,1.73
2019-02-06T00:11:15.998Z,1.46
2019-02-06T00:16:13.421Z,1.60
2019-02-06T00:21:10.184Z,1.59
2019-02-06T00:26:07.144Z,1.46
2019-02-06T00:31:04.100Z,1.34
2019-02-06T00:36:01.286Z,1.46
2019-02-06T00:40:58.222Z,1.47
2019-02-06T00:45:55.582Z,1.53
2019-02-06T00:50:52.494Z,1.35
2019-02-06T00:55:49.437Z,1.26
2019-02-06T01:00:46.354Z,1.23
2019-02-06T01:05:43.397Z,1.17
2019-02-06T01:10:40.319Z,1.09
2019-02-06T01:15:37.378Z,1.01
2019-02-06T01:20:34.293Z,0.99
2019-02-06T01:25:31.439Z,1.03
2019-02-06T01:30:30.197Z,0.97
2019-02-06T01:35:27.466Z,0.83
2019-02-06T01:40:24.397Z,0.96
2019-02-06T01:45:21.843Z,0.97
2019-02-06T01:50:18.951Z,1.09
2019-02-06T01:55:16.009Z,1.08
2019-02-06T02:00:23.041Z,1.17
2019-02-06T02:05:21.593Z,1.18
2019-02-06T02:10:19.610Z,1.19
2019-02-06T02:15:18.331Z,1.25
2019-02-06T02:20:22.874Z,1.13
2019-02-06T02:25:20.001Z,1.30
2019-02-06T02:30:25.507Z,1.38
2019-02-06T02:35:22.566Z,1.55
2019-02-06T02:40:19.510Z,1.43
2019-02-06T02:45:17.926Z,1.65
2019-02-06T02:50:15.298Z,1.55
2019-02-06T02:55:13.209Z,1.63
2019-02-06T03:00:20.510Z,1.72
2019-02-06T03:05:18.721Z,1.82
2019-02-06T03:10:16.253Z,1.67
2019-02-06T03:15:13.478Z,1.73
2019-02-06T03:20:12.421Z,1.97
2019-02-06T03:25:13.252Z,1.97
2019-02-06T03:30:17.397Z,2.16
2019-02-06T03:35:14.416Z,2.19
2019-02-06T03:40:17.057Z,2.22
2019-02-06T03:45:14.244Z,2.29
2019-02-06T03:50:17.444Z,2.32
2019-02-06T03:55:14.666Z,2.39
2019-02-06T04:00:15.326Z,2.31
2019-02-06T04:05:12.940Z,2.38
2019-02-06T04:10:16.299Z,2.35
2019-02-06T04:15:14.635Z,2.35
2019-02-06T04:20:13.750Z,2.23
2019-02-06T04:25:13.063Z,2.28
2019-02-06T04:30:18.593Z,2.13
2019-02-06T04:35:15.608Z,2.36
2019-02-06T04:40:17.879Z,2.28
2019-02-06T04:45:17.898Z,2.33
2019-02-06T04:50:18.362Z,2.31
2019-02-06T04:55:17.165Z,2.30
2019-02-06T05:00:24.231Z,2.35
2019-02-06T05:05:21.136Z,2.46
2019-02-06T05:10:18.104Z,2.41
2019-02-06T05:15:16.903Z,2.42
2019-02-06T05:20:31.254Z,2.43
2019-02-06T05:25:28.175Z,2.30
2019-02-06T05:30:25.127Z,2.31
2019-02-06T05:35:22.152Z,2.36
2019-02-06T05:40:19.149Z,2.36
2019-02-06T05:45:16.454Z,2.33
2019-02-06T05:50:16.840Z,2.29
2019-02-06T05:55:16.422Z,2.36
2019-02-06T06:00:25.418Z,2.48
2019-02-06T06:05:23.130Z,2.34
2019-02-06T06:10:20.262Z,2.33
2019-02-06T06:15:19.273Z,2.33
2019-02-06T06:20:18.842Z,2.21
2019-02-06T06:25:18.189Z,2.12
2019-02-06T06:30:19.006Z,2.18
2019-02-06T06:35:16.113Z,2.23
2019-02-06T06:40:20.416Z,2.27
2019-02-06T06:45:21.126Z,2.22
2019-02-06T06:50:21.981Z,2.26
2019-02-06T06:55:19.198Z,2.40
2019-02-06T07:00:26.432Z,2.48
2019-02-06T07:05:23.387Z,2.68
2019-02-06T07:10:20.345Z,2.64
2019-02-06T07:15:24.080Z,2.49
2019-02-06T07:20:20.989Z,2.85
2019-02-06T07:25:18.767Z,2.86
2019-02-06T07:30:33.676Z,2.98
2019-02-06T07:35:30.633Z,3.22
2019-02-06T07:40:28.932Z,3.26
2019-02-06T07:45:25.840Z,3.16
2019-02-06T07:50:29.698Z,3.24
2019-02-06T07:55:27.104Z,3.53
2019-02-06T08:00:24.184Z,3.75
2019-02-06T08:05:21.890Z,3.61
2019-02-06T08:10:31.126Z,3.74
2019-02-06T08:15:28.122Z,3.18
2019-02-06T08:20:25.497Z,3.12
2019-02-06T08:25:24.390Z,3.00
2019-02-06T08:30:34.805Z,3.13
2019-02-06T08:35:31.734Z,3.18
2019-02-06T08:40:30.421Z,3.45
2019-02-06T08:45:27.337Z,3.42
2019-02-06T08:50:24.699Z,3.97
2019-02-06T08:55:30.084Z,3.99
2019-02-06T09:00:38.890Z,4.09
2019-02-06T09:05:36.193Z,4.11
2019-02-06T09:10:33.338Z,4.40
2019-02-06T09:15:30.277Z,4.51
2019-02-06T09:20:29.041Z,4.16
2019-02-06T09:25:27.946Z,4.30
2019-02-06T09:30:33.705Z,4.48
2019-02-06T09:35:31.009Z,4.55
2019-02-06T09:40:30.174Z,4.44
2019-02-06T09:45:27.483Z,4.48
2019-02-06T09:50:31.034Z,4.94
2019-02-06T09:55:28.496Z,5.07
2019-02-06T10:00:36.497Z,5.29
2019-02-06T10:05:33.821Z,5.26
2019-02-06T10:10:30.782Z,5.49
2019-02-06T10:15:33.621Z,5.58
2019-02-06T10:20:38.421Z,5.27
2019-02-06T10:25:36.236Z,5.67
2019-02-06T10:30:42.846Z,5.72
2019-02-06T10:35:39.750Z,5.77
2019-02-06T10:40:36.757Z,5.93
2019-02-06T10:45:33.955Z,6.02
2019-02-06T10:50:38.673Z,6.04
2019-02-06T10:55:35.782Z,5.78
2019-02-06T11:00:45.609Z,6.03
2019-02-06T11:05:42.738Z,6.11
2019-02-06T11:10:39.710Z,5.84
2019-02-06T11:15:36.836Z,5.89
2019-02-06T11:20:38.633Z,6.33
2019-02-06T11:25:35.853Z,6.73
2019-02-06T11:30:37.666Z,6.94
2019-02-06T11:35:35.173Z,7.12
2019-02-06T11:40:32.363Z,6.78
2019-02-06T11:45:32.097Z,6.60
2019-02-06T11:50:39.591Z,6.48
2019-02-06T11:55:36.495Z,6.64
2019-02-06T12:00:35.756Z,6.83
2019-02-06T12:05:32.674Z,6.83
2019-02-06T12:10:29.617Z,7.14
2019-02-06T12:15:26.610Z,7.27
2019-02-06T12:20:24.627Z,6.97
2019-02-06T12:25:21.575Z,7.10
2019-02-06T12:30:28.433Z,7.08
2019-02-06T12:35:25.561Z,6.83
2019-02-06T12:40:22.990Z,6.77
2019-02-06T12:45:23.151Z,6.10
2019-02-06T12:50:22.236Z,6.52
2019-02-06T12:55:40.391Z,6.52
2019-02-06T13:00:42.616Z,6.33
2019-02-06T13:05:39.552Z,6.59
2019-02-06T13:10:36.587Z,6.56
2019-02-06T13:15:33.484Z,6.83
2019-02-06T13:20:35.431Z,6.83
2019-02-06T13:25:32.335Z,6.84
2019-02-06T13:30:32.473Z,6.47
2019-02-06T13:35:29.393Z,6.47
2019-02-06T13:40:29.230Z,6.38
2019-02-06T13:45:30.401Z,6.70
2019-02-06T13:50:27.581Z,6.80
2019-02-06T13:55:24.680Z,6.53
2019-02-06T14:00:31.035Z,6.42
2019-02-06T14:05:30.341Z,6.39
2019-02-06T14:10:29.900Z,6.30
2019-02-06T14:15:43.692Z,6.31
2019-02-06T14:20:40.998Z,6.16
2019-02-06T14:25:55.358Z,6.32
2019-02-06T14:31:46.219Z,6.01
2019-02-06T14:37:18.929Z,6.02
2019-02-06T14:42:52.974Z,6.19
2019-02-06T14:48:13.221Z,6.24
2019-02-06T14:53:19.391Z,5.82
2019-02-06T14:58:59.895Z,5.98
2019-02-06T15:04:29.266Z,6.02
2019-02-06T15:09:58.987Z,5.99
2019-02-06T15:15:36.619Z,6.03
2019-02-06T15:21:14.157Z,5.97
2019-02-06T15:26:36.529Z,5.81
2019-02-06T15:31:56.912Z,5.48
2019-02-06T15:37:15.005Z,5.46
2019-02-06T15:42:35.834Z,5.60
2019-02-06T15:47:57.124Z,5.43
2019-02-06T15:53:05.494Z,5.43
2019-02-06T15:58:25.839Z,5.34
2019-02-06T16:04:06.453Z,5.28
2019-02-06T16:09:27.185Z,5.32
2019-02-06T16:14:41.111Z,5.14
2019-02-06T16:19:49.418Z,5.06
2019-02-06T16:25:20.442Z,5.11
2019-02-06T16:30:41.385Z,4.98
2019-02-06T16:35:49.557Z,4.96
2019-02-06T16:41:24.717Z,4.85
2019-02-06T16:47:06.929Z,4.70
2019-02-06T16:52:47.514Z,4.59
2019-02-06T16:58:04.883Z,4.58
2019-02-06T17:03:22.313Z,4.60
2019-02-06T17:08:51.815Z,4.55
2019-02-06T17:13:56.950Z,4.49
2019-02-06T17:19:13.965Z,4.62
2019-02-06T17:24:38.698Z,4.48
2019-02-06T17:30:02.318Z,4.47
2019-02-06T17:35:10.969Z,4.37
2019-02-06T17:40:28.246Z,4.28
2019-02-06T17:45:48.277Z,4.30
2019-02-06T17:51:08.397Z,4.19
2019-02-06T17:56:05.321Z,4.25
2019-02-06T18:01:07.753Z,4.30
2019-02-06T18:06:05.872Z,4.28
2019-02-06T18:11:02.939Z,4.18
2019-02-06T18:15:59.855Z,4.07
2019-02-06T18:20:57.261Z,3.94
2019-02-06T18:25:54.689Z,3.99
2019-02-06T18:30:52.343Z,3.92
2019-02-06T18:35:51.071Z,3.97
2019-02-06T18:40:48.205Z,3.91
2019-02-06T18:45:45.330Z,3.79
2019-02-06T18:50:42.501Z,3.76
2019-02-06T18:55:39.699Z,3.74
2019-02-06T19:00:39.830Z,3.60
2019-02-06T19:05:37.769Z,3.48
2019-02-06T19:10:34.965Z,3.49
2019-02-06T19:15:32.391Z,3.50
2019-02-06T19:20:29.558Z,3.32
2019-02-06T19:25:26.497Z,3.24
2019-02-06T19:30:39.802Z,3.16
2019-02-06T19:35:36.703Z,3.05
2019-02-06T19:40:34.195Z,2.87
2019-02-06T19:45:31.203Z,2.67
2019-02-06T19:50:39.715Z,2.52
2019-02-06T19:55:37.043Z,2.58
2019-02-06T20:00:35.628Z,2.40
2019-02-06T20:05:33.225Z,1.97
2019-02-06T20:10:38.298Z,2.03
2019-02-06T20:15:35.358Z,2.12
2019-02-06T20:20:32.347Z,1.95
2019-02-06T20:25:29.704Z,1.98
2019-02-06T20:30:32.066Z,1.91
2019-02-06T20:35:29.538Z,1.77
2019-02-06T20:40:36.079Z,1.58
2019-02-06T20:45:33.107Z,1.53
2019-02-06T20:50:34.890Z,1.53
2019-02-06T20:55:32.102Z,1.40
2019-02-06T21:00:33.878Z,1.33
2019-02-06T21:05:30.794Z,1.30
2019-02-06T21:10:30.947Z,1.11
2019-02-06T21:15:28.036Z,0.99
2019-02-06T21:20:25.668Z,0.87
2019-02-06T21:25:26.197Z,0.72
2019-02-06T21:30:32.644Z,0.63
2019-02-06T21:35:29.793Z,0.67
2019-02-06T21:40:33.147Z,0.54
2019-02-06T21:45:30.207Z,0.43
2019-02-06T21:50:27.293Z,0.31
2019-02-06T21:55:25.892Z,0.19
2019-02-06T22:00:35.957Z,0.19
2019-02-06T22:05:33.268Z,-0.13
2019-02-06T22:10:30.454Z,-0.12
2019-02-06T22:15:30.460Z,-0.21
2019-02-06T22:20:27.669Z,-0.28
2019-02-06T22:25:24.810Z,-0.22
2019-02-06T22:30:29.711Z,-0.27
2019-02-06T22:35:26.673Z,-0.33
2019-02-06T22:40:26.166Z,-0.49
2019-02-06T22:45:27.746Z,-0.74
2019-02-06T22:50:27.754Z,-0.76
2019-02-06T22:55:25.113Z,-0.67
2019-02-06T23:00:49.560Z,-0.66
2019-02-06T23:05:46.651Z,-0.84
2019-02-06T23:10:43.725Z,-0.70
2019-02-06T23:15:41.600Z,-0.74
2019-02-06T23:20:38.821Z,-1.04
2019-02-06T23:25:35.766Z,-0.97
2019-02-06T23:30:32.976Z,-0.97
2019-02-06T23:35:30.170Z,-0.92
2019-02-06T23:40:27.173Z,-0.98
2019-02-06T23:45:24.139Z,-0.93
2019-02-06T23:50:21.365Z,-0.96
2019-02-06T23:55:18.313Z,-0.96
